Sm Falcon — H3MW — position and weather

sailwx.info

Track history (hours):
 
Tides and Currents Weather Stations Pressure Air Temp Water Temp Dewpoint Dewpoint Depression Visibility Wind Speed Wind Dir Waves Ship Positions

Sm Falcon

Last reported at 2017-Nov-15 17:32 UTC. Time now 2017-Nov-21 20:55 UTC.
Position S 24°54' W 045°25'.

Length 182 m; draft 8.1 m.

Type: Tanker. MMSI: 352781000.

Date/timePositionNaut miles runAvg speedWind from/ knotsBaromVisibWave heightAir tempDewpointWater temp
2017-Nov-15 17:32S 24°54' W 045°25'112.6
2017-Nov-15 17:29S 24°54' W 045°26'1412.1
2017-Nov-15 16:21S 24°57' W 045°41'412.2
2017-Nov-15 16:00S 24°58' W 045°45'1112.6
2017-Nov-15 15:10S 25°01' W 045°56'512.7
2017-Nov-15 14:49S 25°02' W 046°01'512.6
2017-Nov-15 14:23S 25°04' W 046°07'512.5
2017-Nov-15 13:57S 25°05' W 046°13'612.8
2017-Nov-15 13:30S 25°07' W 046°19'612.7
2017-Nov-15 12:59S 25°09' W 046°26'812.7
2017-Nov-15 12:21S 25°11' W 046°34'412.7
2017-Nov-15 12:00S 25°13' W 046°39'712.7
2017-Nov-15 11:29S 25°14' W 046°46'912.6
2017-Nov-15 10:44S 25°17' W 046°56'612.6
2017-Nov-15 10:16S 25°19' W 047°02'  
2017-Nov-12 22:36S 25°27' W 047°34'212.6
2017-Nov-12 22:27S 25°27' W 047°32'613.1
2017-Nov-12 22:00S 25°25' W 047°26'713.2
2017-Nov-12 21:30S 25°22' W 047°19'713.4
2017-Nov-12 21:00S 25°21' W 047°11'713.4
2017-Nov-12 20:29S 25°20' W 047°04'613.3
2017-Nov-12 20:00S 25°18' W 046°57'713.1
2017-Nov-12 19:30S 25°16' W 046°50'713.1
2017-Nov-12 19:00S 25°14' W 046°43'613.0
2017-Nov-12 18:30S 25°12' W 046°37'812.7
2017-Nov-12 17:55S 25°10' W 046°28'512.2
2017-Nov-12 17:30S 25°08' W 046°23'612.1
2017-Nov-12 17:00S 25°06' W 046°17'612.1
2017-Nov-12 16:30S 25°05' W 046°10'612.2
2017-Nov-12 16:00S 25°03' W 046°04'612.2
2017-Nov-12 15:30S 25°01' W 045°58'612.2
2017-Nov-12 15:00S 24°59' W 045°51'612.1
2017-Nov-12 14:29S 24°58' W 045°44'612.3
2017-Nov-12 13:59S 24°56' W 045°38'712.4
2017-Nov-12 13:23S 24°54' W 045°30'512.5
2017-Nov-12 13:00S 24°53' W 045°25'612.6
2017-Nov-12 12:30S 24°51' W 045°18'612.7
2017-Nov-12 12:00S 24°49' W 045°12'612.7
2017-Nov-12 11:30S 24°47' W 045°05'812.9
2017-Nov-12 10:55S 24°45' W 044°57'513.0
2017-Nov-12 10:30S 24°43' W 044°51'612.5
2017-Nov-12 10:00S 24°42' W 044°45'612.8
2017-Nov-12 09:30S 24°40' W 044°38'613.0
2017-Nov-12 09:00S 24°38' W 044°31'713.0
2017-Nov-12 08:30S 24°36' W 044°24'713.1
2017-Nov-12 08:00S 24°34' W 044°17'713.4
2017-Nov-12 07:30S 24°32' W 044°10'713.5
2017-Nov-12 07:00S 24°30' W 044°03'1113.6
2017-Nov-12 06:12S 24°27' W 043°52'313.8
2017-Nov-12 06:00S 24°26' W 043°49'713.6
2017-Nov-12 05:28S 24°24' W 043°41'713.4
2017-Nov-12 04:59S 24°22' W 043°34'  
Track history (hours):
 
Tides and Currents Weather Stations Pressure Air Temp Water Temp Dewpoint Dewpoint Depression Visibility Wind Speed Wind Dir Waves Ship Positions

Sm Falcon

Last reported at 2017-Nov-15 17:32 UTC. Time now 2017-Nov-21 20:55 UTC.
Position S 24°54' W 045°25'.

Length 182 m; draft 8.1 m.

Type: Tanker. MMSI: 352781000.

Date/timePositionNaut miles runAvg speedWind from/ knotsBaromVisibWave heightAir tempDewpointWater temp
2017-Nov-15 17:32S 24°54' W 045°25'112.6
2017-Nov-15 17:29S 24°54' W 045°26'1412.1
2017-Nov-15 16:21S 24°57' W 045°41'412.2
2017-Nov-15 16:00S 24°58' W 045°45'1112.6
2017-Nov-15 15:10S 25°01' W 045°56'512.7
2017-Nov-15 14:49S 25°02' W 046°01'512.6
2017-Nov-15 14:23S 25°04' W 046°07'512.5
2017-Nov-15 13:57S 25°05' W 046°13'612.8
2017-Nov-15 13:30S 25°07' W 046°19'612.7
2017-Nov-15 12:59S 25°09' W 046°26'812.7
2017-Nov-15 12:21S 25°11' W 046°34'412.7
2017-Nov-15 12:00S 25°13' W 046°39'712.7
2017-Nov-15 11:29S 25°14' W 046°46'912.6
2017-Nov-15 10:44S 25°17' W 046°56'612.6
2017-Nov-15 10:16S 25°19' W 047°02'  
2017-Nov-12 22:36S 25°27' W 047°34'212.6
2017-Nov-12 22:27S 25°27' W 047°32'613.1
2017-Nov-12 22:00S 25°25' W 047°26'713.2
2017-Nov-12 21:30S 25°22' W 047°19'713.4
2017-Nov-12 21:00S 25°21' W 047°11'713.4
2017-Nov-12 20:29S 25°20' W 047°04'613.3
2017-Nov-12 20:00S 25°18' W 046°57'713.1
2017-Nov-12 19:30S 25°16' W 046°50'713.1
2017-Nov-12 19:00S 25°14' W 046°43'613.0
2017-Nov-12 18:30S 25°12' W 046°37'812.7
2017-Nov-12 17:55S 25°10' W 046°28'512.2
2017-Nov-12 17:30S 25°08' W 046°23'612.1
2017-Nov-12 17:00S 25°06' W 046°17'612.1
2017-Nov-12 16:30S 25°05' W 046°10'612.2
2017-Nov-12 16:00S 25°03' W 046°04'612.2
2017-Nov-12 15:30S 25°01' W 045°58'612.2
2017-Nov-12 15:00S 24°59' W 045°51'612.1
2017-Nov-12 14:29S 24°58' W 045°44'612.3
2017-Nov-12 13:59S 24°56' W 045°38'712.4
2017-Nov-12 13:23S 24°54' W 045°30'512.5
2017-Nov-12 13:00S 24°53' W 045°25'612.6
2017-Nov-12 12:30S 24°51' W 045°18'612.7
2017-Nov-12 12:00S 24°49' W 045°12'612.7
2017-Nov-12 11:30S 24°47' W 045°05'812.9
2017-Nov-12 10:55S 24°45' W 044°57'513.0
2017-Nov-12 10:30S 24°43' W 044°51'612.5
2017-Nov-12 10:00S 24°42' W 044°45'612.8
2017-Nov-12 09:30S 24°40' W 044°38'613.0
2017-Nov-12 09:00S 24°38' W 044°31'713.0
2017-Nov-12 08:30S 24°36' W 044°24'713.1
2017-Nov-12 08:00S 24°34' W 044°17'713.4
2017-Nov-12 07:30S 24°32' W 044°10'713.5
2017-Nov-12 07:00S 24°30' W 044°03'1113.6
2017-Nov-12 06:12S 24°27' W 043°52'313.8
2017-Nov-12 06:00S 24°26' W 043°49'713.6
2017-Nov-12 05:28S 24°24' W 043°41'713.4
2017-Nov-12 04:59S 24°22' W 043°34'  

Dump ship's entire track history